createdAt,value
2023-05-05T00:04:41.885Z,13.20
2023-05-05T00:19:43.530Z,13.30
2023-05-05T00:34:45.185Z,11.97
2023-05-05T00:49:47.109Z,12.03
2023-05-05T01:04:49.015Z,12.10
2023-05-05T01:20:29.084Z,12.87
2023-05-05T01:35:41.973Z,11.10
2023-05-05T01:50:46.753Z,13.40
2023-05-05T02:05:50.058Z,10.47
2023-05-05T02:35:58.088Z,11.50
2023-05-05T02:50:59.781Z,12.30
2023-05-05T03:06:07.572Z,14.43
2023-05-05T03:21:09.632Z,11.07
2023-05-05T03:36:11.344Z,10.53
2023-05-05T03:51:13.442Z,11.43
2023-05-05T04:06:15.065Z,11.73
2023-05-05T04:21:16.689Z,13.47
2023-05-05T04:36:19.198Z,13.67
2023-05-05T04:51:20.862Z,14.37
2023-05-05T05:06:22.746Z,12.50
2023-05-05T05:21:24.385Z,14.67
2023-05-05T05:36:26.335Z,13.27
2023-05-05T05:51:27.967Z,14.60
2023-05-05T06:06:29.666Z,15.23
2023-05-05T06:21:31.318Z,14.93
2023-05-05T06:36:33.031Z,14.17
2023-05-05T06:51:35.561Z,16.30
2023-05-05T07:06:37.234Z,15.70
2023-05-05T07:21:39.749Z,16.07
2023-05-05T07:51:43.888Z,16.30
2023-05-05T08:06:45.650Z,18.93
2023-05-05T08:21:47.366Z,19.07
2023-05-05T08:36:50.952Z,22.33
2023-05-05T08:51:54.707Z,21.57
2023-05-05T09:06:58.561Z,23.13
2023-05-05T09:22:00.502Z,21.43
2023-05-05T09:37:02.194Z,24.97
2023-05-05T09:52:16.482Z,20.37
2023-05-05T10:07:27.541Z,24.93
2023-05-05T10:22:32.925Z,26.07
2023-05-05T10:37:37.663Z,26.13
2023-05-05T10:53:13.053Z,27.37
2023-05-05T11:08:36.020Z,30.47
2023-05-05T11:23:38.185Z,26.67
2023-05-05T11:39:00.435Z,27.37
2023-05-05T11:54:02.186Z,27.40
2023-05-05T12:25:37.058Z,28.63
2023-05-05T12:40:53.953Z,26.27
2023-05-05T12:55:55.658Z,28.63
2023-05-05T13:10:58.413Z,27.53
2023-05-05T13:26:00.182Z,26.20
2023-05-05T13:41:02.117Z,25.33
2023-05-05T13:56:04.301Z,24.63
2023-05-05T14:11:06.060Z,23.70
2023-05-05T14:26:09.049Z,24.53
2023-05-05T14:41:11.051Z,25.17
2023-05-05T14:56:12.888Z,24.83
2023-05-05T15:11:14.593Z,22.87
2023-05-05T15:26:16.507Z,23.53
2023-05-05T15:41:18.296Z,21.13
2023-05-05T15:56:20.230Z,24.23
2023-05-05T16:11:23.625Z,22.23
2023-05-05T16:26:25.610Z,26.07
2023-05-05T16:41:27.588Z,22.80
2023-05-05T16:56:29.476Z,24.40
2023-05-05T17:11:31.238Z,23.10
2023-05-05T17:26:33.033Z,21.57
2023-05-05T17:41:34.803Z,20.87
2023-05-05T17:56:38.080Z,18.90
2023-05-05T18:11:39.745Z,18.00
2023-05-05T18:26:42.046Z,18.80
2023-05-05T18:41:43.787Z,17.37
2023-05-05T18:56:45.812Z,17.30
2023-05-05T19:11:47.502Z,13.70
2023-05-05T19:26:49.366Z,15.27
2023-05-05T19:41:51.086Z,16.60
2023-05-05T19:56:54.547Z,13.47
2023-05-05T20:11:58.835Z,14.10
2023-05-05T20:27:02.093Z,13.03
2023-05-05T20:42:03.929Z,13.10
2023-05-05T20:57:07.144Z,13.10
2023-05-05T21:12:08.786Z,13.57
2023-05-05T21:27:10.483Z,14.00
2023-05-05T21:42:12.183Z,14.23
2023-05-05T21:57:13.831Z,12.27
2023-05-05T22:12:16.367Z,12.37
2023-05-05T22:27:18.021Z,13.10
2023-05-05T22:42:19.703Z,11.57
2023-05-05T22:57:21.680Z,10.30
2023-05-05T23:12:23.323Z,12.13
2023-05-05T23:27:25.014Z,11.40
2023-05-05T23:42:26.713Z,10.60
2023-05-05T23:57:28.307Z,11.07
